sensor_id;sensor_type;location;lat;lon;timestamp;P1;durP1;ratioP1;P2;durP2;ratioP2
70406;SDS011;57821;52.202;0.154;2023-02-15T00:00:16;60.22;;;32.10;;
70406;SDS011;57821;52.202;0.154;2023-02-15T00:02:43;61.30;;;29.83;;
70406;SDS011;57821;52.202;0.154;2023-02-15T00:05:09;63.70;;;31.70;;
70406;SDS011;57821;52.202;0.154;2023-02-15T00:07:36;67.30;;;33.63;;
70406;SDS011;57821;52.202;0.154;2023-02-15T00:10:03;65.28;;;32.45;;
70406;SDS011;57821;52.202;0.154;2023-02-15T00:12:30;66.10;;;32.85;;
70406;SDS011;57821;52.202;0.154;2023-02-15T00:14:57;55.47;;;31.23;;
70406;SDS011;57821;52.202;0.154;2023-02-15T00:17:23;60.80;;;31.27;;
70406;SDS011;57821;52.202;0.154;2023-02-15T00:19:50;60.97;;;31.73;;
70406;SDS011;57821;52.202;0.154;2023-02-15T00:22:16;63.75;;;33.38;;
70406;SDS011;57821;52.202;0.154;2023-02-15T00:24:43;58.78;;;32.75;;
70406;SDS011;57821;52.202;0.154;2023-02-15T00:27:09;65.03;;;32.97;;
70406;SDS011;57821;52.202;0.154;2023-02-15T00:29:36;61.47;;;33.10;;
70406;SDS011;57821;52.202;0.154;2023-02-15T00:32:03;53.45;;;32.53;;
70406;SDS011;57821;52.202;0.154;2023-02-15T00:34:29;61.45;;;31.83;;
70406;SDS011;57821;52.202;0.154;2023-02-15T00:36:56;60.67;;;32.00;;
70406;SDS011;57821;52.202;0.154;2023-02-15T00:39:23;61.55;;;31.95;;
70406;SDS011;57821;52.202;0.154;2023-02-15T00:41:49;58.75;;;31.30;;
70406;SDS011;57821;52.202;0.154;2023-02-15T00:44:16;54.85;;;30.08;;
70406;SDS011;57821;52.202;0.154;2023-02-15T00:46:43;58.10;;;31.50;;
70406;SDS011;57821;52.202;0.154;2023-02-15T00:49:09;57.40;;;30.45;;
70406;SDS011;57821;52.202;0.154;2023-02-15T00:51:36;58.63;;;30.58;;
70406;SDS011;57821;52.202;0.154;2023-02-15T00:54:04;57.83;;;31.73;;
70406;SDS011;57821;52.202;0.154;2023-02-15T00:56:30;64.75;;;31.50;;
70406;SDS011;57821;52.202;0.154;2023-02-15T00:58:57;68.75;;;33.78;;
70406;SDS011;57821;52.202;0.154;2023-02-15T01:01:23;64.10;;;33.63;;
70406;SDS011;57821;52.202;0.154;2023-02-15T01:03:50;62.35;;;32.60;;
70406;SDS011;57821;52.202;0.154;2023-02-15T01:06:17;64.18;;;32.03;;
70406;SDS011;57821;52.202;0.154;2023-02-15T01:08:45;59.83;;;32.10;;
70406;SDS011;57821;52.202;0.154;2023-02-15T01:11:16;58.08;;;31.70;;
70406;SDS011;57821;52.202;0.154;2023-02-15T01:13:44;59.63;;;30.48;;
70406;SDS011;57821;52.202;0.154;2023-02-15T01:16:11;55.63;;;30.80;;
70406;SDS011;57821;52.202;0.154;2023-02-15T01:18:37;62.38;;;32.45;;
70406;SDS011;57821;52.202;0.154;2023-02-15T01:21:11;56.13;;;30.27;;
70406;SDS011;57821;52.202;0.154;2023-02-15T01:23:42;64.47;;;30.27;;
70406;SDS011;57821;52.202;0.154;2023-02-15T01:26:11;54.60;;;31.00;;
70406;SDS011;57821;52.202;0.154;2023-02-15T01:28:37;57.10;;;30.42;;
70406;SDS011;57821;52.202;0.154;2023-02-15T01:31:05;59.05;;;31.38;;
70406;SDS011;57821;52.202;0.154;2023-02-15T01:33:39;55.50;;;29.58;;
70406;SDS011;57821;52.202;0.154;2023-02-15T01:36:08;52.90;;;29.50;;
70406;SDS011;57821;52.202;0.154;2023-02-15T01:38:35;53.60;;;29.20;;
70406;SDS011;57821;52.202;0.154;2023-02-15T01:41:04;52.53;;;29.52;;
70406;SDS011;57821;52.202;0.154;2023-02-15T01:43:41;52.17;;;29.35;;
70406;SDS011;57821;52.202;0.154;2023-02-15T01:46:09;60.55;;;30.98;;
70406;SDS011;57821;52.202;0.154;2023-02-15T01:48:40;60.25;;;31.58;;
70406;SDS011;57821;52.202;0.154;2023-02-15T01:51:19;60.88;;;30.95;;
70406;SDS011;57821;52.202;0.154;2023-02-15T01:53:54;54.95;;;28.60;;
70406;SDS011;57821;52.202;0.154;2023-02-15T01:56:27;57.63;;;31.30;;
70406;SDS011;57821;52.202;0.154;2023-02-15T02:01:26;60.38;;;30.73;;
70406;SDS011;57821;52.202;0.154;2023-02-15T02:04:05;64.10;;;32.63;;
70406;SDS011;57821;52.202;0.154;2023-02-15T02:06:35;61.47;;;32.92;;
70406;SDS011;57821;52.202;0.154;2023-02-15T02:09:02;65.43;;;34.05;;
70406;SDS011;57821;52.202;0.154;2023-02-15T02:11:29;67.30;;;33.60;;
70406;SDS011;57821;52.202;0.154;2023-02-15T02:13:55;67.38;;;35.92;;
70406;SDS011;57821;52.202;0.154;2023-02-15T02:19:28;70.80;;;33.83;;
70406;SDS011;57821;52.202;0.154;2023-02-15T02:41:09;71.82;;;35.38;;
70406;SDS011;57821;52.202;0.154;2023-02-15T02:44:01;64.78;;;32.13;;
70406;SDS011;57821;52.202;0.154;2023-02-15T02:49:39;67.25;;;32.65;;
70406;SDS011;57821;52.202;0.154;2023-02-15T02:54:59;63.22;;;33.20;;
70406;SDS011;57821;52.202;0.154;2023-02-15T02:57:27;61.38;;;31.73;;
70406;SDS011;57821;52.202;0.154;2023-02-15T02:59:55;59.72;;;31.05;;
70406;SDS011;57821;52.202;0.154;2023-02-15T03:02:27;62.50;;;30.70;;
70406;SDS011;57821;52.202;0.154;2023-02-15T03:04:59;61.90;;;32.28;;
70406;SDS011;57821;52.202;0.154;2023-02-15T03:07:31;67.20;;;33.60;;
70406;SDS011;57821;52.202;0.154;2023-02-15T03:10:01;74.03;;;36.63;;
70406;SDS011;57821;52.202;0.154;2023-02-15T03:12:31;68.20;;;35.28;;
70406;SDS011;57821;52.202;0.154;2023-02-15T03:15:11;73.43;;;38.03;;
70406;SDS011;57821;52.202;0.154;2023-02-15T03:17:43;70.82;;;34.88;;
70406;SDS011;57821;52.202;0.154;2023-02-15T03:20:16;72.07;;;35.83;;
70406;SDS011;57821;52.202;0.154;2023-02-15T03:22:50;80.00;;;40.22;;
70406;SDS011;57821;52.202;0.154;2023-02-15T03:25:22;78.57;;;37.92;;
70406;SDS011;57821;52.202;0.154;2023-02-15T03:27:59;74.47;;;36.70;;
70406;SDS011;57821;52.202;0.154;2023-02-15T03:30:30;80.68;;;37.88;;
70406;SDS011;57821;52.202;0.154;2023-02-15T03:32:58;67.15;;;36.20;;
70406;SDS011;57821;52.202;0.154;2023-02-15T03:35:30;78.20;;;37.15;;
70406;SDS011;57821;52.202;0.154;2023-02-15T03:38:03;80.28;;;39.85;;
70406;SDS011;57821;52.202;0.154;2023-02-15T03:40:37;75.63;;;37.08;;
70406;SDS011;57821;52.202;0.154;2023-02-15T03:43:10;75.60;;;38.10;;
70406;SDS011;57821;52.202;0.154;2023-02-15T03:45:38;78.65;;;37.22;;
70406;SDS011;57821;52.202;0.154;2023-02-15T03:48:08;86.25;;;41.47;;
70406;SDS011;57821;52.202;0.154;2023-02-15T03:50:35;83.90;;;41.67;;
70406;SDS011;57821;52.202;0.154;2023-02-15T03:53:05;76.72;;;38.55;;
70406;SDS011;57821;52.202;0.154;2023-02-15T03:55:34;83.72;;;37.90;;
70406;SDS011;57821;52.202;0.154;2023-02-15T03:58:02;84.70;;;39.92;;
70406;SDS011;57821;52.202;0.154;2023-02-15T04:00:29;75.93;;;38.20;;
70406;SDS011;57821;52.202;0.154;2023-02-15T04:05:55;78.72;;;39.33;;
70406;SDS011;57821;52.202;0.154;2023-02-15T04:08:21;81.93;;;40.25;;
70406;SDS011;57821;52.202;0.154;2023-02-15T04:10:48;80.30;;;38.22;;
70406;SDS011;57821;52.202;0.154;2023-02-15T04:13:14;82.72;;;40.00;;
70406;SDS011;57821;52.202;0.154;2023-02-15T04:15:41;78.03;;;38.85;;
70406;SDS011;57821;52.202;0.154;2023-02-15T04:18:07;77.38;;;38.60;;
70406;SDS011;57821;52.202;0.154;2023-02-15T04:20:34;74.55;;;38.25;;
70406;SDS011;57821;52.202;0.154;2023-02-15T04:23:00;73.15;;;36.58;;
70406;SDS011;57821;52.202;0.154;2023-02-15T04:25:27;74.80;;;36.83;;
70406;SDS011;57821;52.202;0.154;2023-02-15T04:27:54;79.90;;;40.20;;
70406;SDS011;57821;52.202;0.154;2023-02-15T04:30:22;76.10;;;38.20;;
70406;SDS011;57821;52.202;0.154;2023-02-15T04:32:51;78.85;;;37.50;;
70406;SDS011;57821;52.202;0.154;2023-02-15T04:35:18;79.15;;;40.10;;
70406;SDS011;57821;52.202;0.154;2023-02-15T04:37:44;84.40;;;41.55;;
70406;SDS011;57821;52.202;0.154;2023-02-15T04:40:12;86.97;;;40.35;;
70406;SDS011;57821;52.202;0.154;2023-02-15T04:42:42;90.30;;;42.53;;
70406;SDS011;57821;52.202;0.154;2023-02-15T04:45:08;84.20;;;41.58;;
70406;SDS011;57821;52.202;0.154;2023-02-15T04:47:35;83.72;;;40.40;;
70406;SDS011;57821;52.202;0.154;2023-02-15T04:50:02;89.03;;;42.40;;
70406;SDS011;57821;52.202;0.154;2023-02-15T04:52:28;99.40;;;43.67;;
70406;SDS011;57821;52.202;0.154;2023-02-15T04:54:55;86.20;;;42.08;;
70406;SDS011;57821;52.202;0.154;2023-02-15T04:57:21;85.30;;;42.08;;
70406;SDS011;57821;52.202;0.154;2023-02-15T04:59:48;79.60;;;39.70;;
70406;SDS011;57821;52.202;0.154;2023-02-15T05:02:14;82.97;;;40.65;;
70406;SDS011;57821;52.202;0.154;2023-02-15T05:04:41;78.28;;;40.10;;
70406;SDS011;57821;52.202;0.154;2023-02-15T05:07:07;89.47;;;41.50;;
70406;SDS011;57821;52.202;0.154;2023-02-15T05:09:34;90.45;;;42.70;;
70406;SDS011;57821;52.202;0.154;2023-02-15T05:12:00;84.65;;;41.83;;
70406;SDS011;57821;52.202;0.154;2023-02-15T05:14:27;92.53;;;43.78;;
70406;SDS011;57821;52.202;0.154;2023-02-15T05:16:53;94.60;;;47.13;;
70406;SDS011;57821;52.202;0.154;2023-02-15T05:19:20;119.47;;;53.38;;
70406;SDS011;57821;52.202;0.154;2023-02-15T05:21:46;123.85;;;53.28;;
70406;SDS011;57821;52.202;0.154;2023-02-15T05:24:13;102.85;;;48.10;;
70406;SDS011;57821;52.202;0.154;2023-02-15T05:26:39;144.43;;;59.13;;
70406;SDS011;57821;52.202;0.154;2023-02-15T05:29:06;127.13;;;55.13;;
70406;SDS011;57821;52.202;0.154;2023-02-15T05:31:34;119.80;;;50.70;;
70406;SDS011;57821;52.202;0.154;2023-02-15T05:34:01;123.70;;;53.30;;
70406;SDS011;57821;52.202;0.154;2023-02-15T05:36:28;109.72;;;50.45;;
70406;SDS011;57821;52.202;0.154;2023-02-15T05:38:55;115.63;;;54.15;;
70406;SDS011;57821;52.202;0.154;2023-02-15T05:41:22;124.90;;;55.53;;
70406;SDS011;57821;52.202;0.154;2023-02-15T05:43:48;118.85;;;52.53;;
70406;SDS011;57821;52.202;0.154;2023-02-15T05:46:15;118.28;;;56.30;;
70406;SDS011;57821;52.202;0.154;2023-02-15T05:48:41;112.82;;;51.83;;
70406;SDS011;57821;52.202;0.154;2023-02-15T05:51:09;125.40;;;53.25;;
70406;SDS011;57821;52.202;0.154;2023-02-15T05:53:37;118.95;;;54.60;;
70406;SDS011;57821;52.202;0.154;2023-02-15T05:56:05;116.53;;;52.95;;
70406;SDS011;57821;52.202;0.154;2023-02-15T05:58:34;113.40;;;51.63;;
70406;SDS011;57821;52.202;0.154;2023-02-15T06:01:13;111.32;;;49.75;;
70406;SDS011;57821;52.202;0.154;2023-02-15T06:03:42;116.93;;;51.97;;
70406;SDS011;57821;52.202;0.154;2023-02-15T06:06:09;96.90;;;46.40;;
70406;SDS011;57821;52.202;0.154;2023-02-15T06:08:36;100.20;;;48.53;;
70406;SDS011;57821;52.202;0.154;2023-02-15T06:11:03;115.57;;;51.72;;
70406;SDS011;57821;52.202;0.154;2023-02-15T06:13:31;110.88;;;52.40;;
70406;SDS011;57821;52.202;0.154;2023-02-15T06:15:58;115.78;;;52.50;;
70406;SDS011;57821;52.202;0.154;2023-02-15T06:18:24;101.88;;;48.90;;
70406;SDS011;57821;52.202;0.154;2023-02-15T06:20:51;115.85;;;53.53;;
70406;SDS011;57821;52.202;0.154;2023-02-15T06:23:18;115.22;;;52.90;;
70406;SDS011;57821;52.202;0.154;2023-02-15T06:25:45;107.40;;;52.72;;
70406;SDS011;57821;52.202;0.154;2023-02-15T06:28:12;110.78;;;51.92;;
70406;SDS011;57821;52.202;0.154;2023-02-15T06:30:39;120.35;;;56.03;;
70406;SDS011;57821;52.202;0.154;2023-02-15T06:33:06;106.47;;;49.35;;
70406;SDS011;57821;52.202;0.154;2023-02-15T06:35:32;116.15;;;50.50;;
70406;SDS011;57821;52.202;0.154;2023-02-15T06:37:59;107.13;;;52.10;;
70406;SDS011;57821;52.202;0.154;2023-02-15T06:40:25;125.97;;;54.47;;
70406;SDS011;57821;52.202;0.154;2023-02-15T06:42:52;112.00;;;51.70;;
70406;SDS011;57821;52.202;0.154;2023-02-15T06:45:18;123.68;;;53.97;;
70406;SDS011;57821;52.202;0.154;2023-02-15T06:47:45;108.82;;;51.58;;
70406;SDS011;57821;52.202;0.154;2023-02-15T06:50:11;114.03;;;54.03;;
70406;SDS011;57821;52.202;0.154;2023-02-15T06:52:38;108.25;;;50.10;;
70406;SDS011;57821;52.202;0.154;2023-02-15T06:55:04;114.78;;;52.47;;
70406;SDS011;57821;52.202;0.154;2023-02-15T06:57:31;110.13;;;51.38;;
70406;SDS011;57821;52.202;0.154;2023-02-15T06:59:58;117.35;;;53.50;;
70406;SDS011;57821;52.202;0.154;2023-02-15T07:02:24;109.47;;;52.60;;
70406;SDS011;57821;52.202;0.154;2023-02-15T07:04:51;104.57;;;49.88;;
70406;SDS011;57821;52.202;0.154;2023-02-15T07:07:17;96.80;;;49.50;;
70406;SDS011;57821;52.202;0.154;2023-02-15T07:09:45;109.90;;;50.22;;
70406;SDS011;57821;52.202;0.154;2023-02-15T07:12:11;119.53;;;53.53;;
70406;SDS011;57821;52.202;0.154;2023-02-15T07:14:38;116.30;;;52.60;;
70406;SDS011;57821;52.202;0.154;2023-02-15T07:17:04;112.60;;;52.97;;
70406;SDS011;57821;52.202;0.154;2023-02-15T07:19:40;106.40;;;50.47;;
70406;SDS011;57821;52.202;0.154;2023-02-15T07:22:06;103.85;;;49.50;;
70406;SDS011;57821;52.202;0.154;2023-02-15T07:24:33;112.85;;;51.38;;
70406;SDS011;57821;52.202;0.154;2023-02-15T07:26:59;121.72;;;55.28;;
70406;SDS011;57821;52.202;0.154;2023-02-15T07:29:26;119.97;;;55.15;;
70406;SDS011;57821;52.202;0.154;2023-02-15T07:31:52;98.65;;;50.67;;
70406;SDS011;57821;52.202;0.154;2023-02-15T07:34:19;113.40;;;51.95;;
70406;SDS011;57821;52.202;0.154;2023-02-15T07:36:45;129.60;;;55.55;;
70406;SDS011;57821;52.202;0.154;2023-02-15T07:39:12;114.97;;;52.38;;
70406;SDS011;57821;52.202;0.154;2023-02-15T07:41:38;106.63;;;50.05;;
70406;SDS011;57821;52.202;0.154;2023-02-15T07:46:37;118.43;;;53.38;;
70406;SDS011;57821;52.202;0.154;2023-02-15T07:49:04;106.43;;;51.28;;
70406;SDS011;57821;52.202;0.154;2023-02-15T07:51:30;113.53;;;51.72;;
70406;SDS011;57821;52.202;0.154;2023-02-15T07:53:57;116.13;;;53.20;;
70406;SDS011;57821;52.202;0.154;2023-02-15T07:56:23;108.63;;;51.88;;
70406;SDS011;57821;52.202;0.154;2023-02-15T07:58:50;109.18;;;52.55;;
70406;SDS011;57821;52.202;0.154;2023-02-15T08:01:24;106.70;;;52.10;;
70406;SDS011;57821;52.202;0.154;2023-02-15T08:03:53;113.93;;;51.22;;
70406;SDS011;57821;52.202;0.154;2023-02-15T08:06:21;104.68;;;50.08;;
70406;SDS011;57821;52.202;0.154;2023-02-15T08:08:49;106.88;;;52.10;;
70406;SDS011;57821;52.202;0.154;2023-02-15T08:11:19;110.22;;;53.25;;
70406;SDS011;57821;52.202;0.154;2023-02-15T08:13:47;114.47;;;53.72;;
70406;SDS011;57821;52.202;0.154;2023-02-15T08:16:14;98.65;;;49.78;;
70406;SDS011;57821;52.202;0.154;2023-02-15T08:18:41;107.13;;;52.25;;
70406;SDS011;57821;52.202;0.154;2023-02-15T08:21:07;100.80;;;50.60;;
70406;SDS011;57821;52.202;0.154;2023-02-15T08:23:34;108.18;;;52.35;;
70406;SDS011;57821;52.202;0.154;2023-02-15T08:26:00;109.90;;;54.35;;
70406;SDS011;57821;52.202;0.154;2023-02-15T08:28:27;110.30;;;52.15;;
70406;SDS011;57821;52.202;0.154;2023-02-15T08:30:54;113.25;;;52.47;;
70406;SDS011;57821;52.202;0.154;2023-02-15T08:33:20;108.75;;;54.38;;
70406;SDS011;57821;52.202;0.154;2023-02-15T08:35:47;107.38;;;53.50;;
70406;SDS011;57821;52.202;0.154;2023-02-15T08:38:13;107.35;;;53.55;;
70406;SDS011;57821;52.202;0.154;2023-02-15T08:40:40;109.28;;;53.00;;
70406;SDS011;57821;52.202;0.154;2023-02-15T08:43:06;102.18;;;53.42;;
70406;SDS011;57821;52.202;0.154;2023-02-15T08:45:33;102.70;;;52.45;;
70406;SDS011;57821;52.202;0.154;2023-02-15T08:47:59;102.10;;;51.40;;
70406;SDS011;57821;52.202;0.154;2023-02-15T08:50:26;101.40;;;49.17;;
70406;SDS011;57821;52.202;0.154;2023-02-15T08:52:52;95.65;;;48.67;;
70406;SDS011;57821;52.202;0.154;2023-02-15T08:55:19;91.88;;;49.85;;
70406;SDS011;57821;52.202;0.154;2023-02-15T08:57:45;97.63;;;50.28;;
70406;SDS011;57821;52.202;0.154;2023-02-15T09:00:12;95.63;;;51.22;;
70406;SDS011;57821;52.202;0.154;2023-02-15T09:02:39;95.55;;;50.17;;
70406;SDS011;57821;52.202;0.154;2023-02-15T09:05:05;94.95;;;50.05;;
70406;SDS011;57821;52.202;0.154;2023-02-15T09:07:32;88.47;;;49.45;;
70406;SDS011;57821;52.202;0.154;2023-02-15T09:09:59;96.03;;;52.03;;
70406;SDS011;57821;52.202;0.154;2023-02-15T09:12:25;83.75;;;47.58;;
70406;SDS011;57821;52.202;0.154;2023-02-15T09:14:52;81.38;;;46.80;;
70406;SDS011;57821;52.202;0.154;2023-02-15T09:17:18;80.50;;;45.60;;
70406;SDS011;57821;52.202;0.154;2023-02-15T09:19:44;83.88;;;47.90;;
70406;SDS011;57821;52.202;0.154;2023-02-15T09:22:11;77.25;;;46.40;;
70406;SDS011;57821;52.202;0.154;2023-02-15T09:24:37;74.65;;;45.03;;
70406;SDS011;57821;52.202;0.154;2023-02-15T09:27:04;77.03;;;44.75;;
70406;SDS011;57821;52.202;0.154;2023-02-15T09:29:30;71.15;;;43.72;;
70406;SDS011;57821;52.202;0.154;2023-02-15T09:31:57;73.30;;;42.58;;
70406;SDS011;57821;52.202;0.154;2023-02-15T09:34:23;75.22;;;45.05;;
70406;SDS011;57821;52.202;0.154;2023-02-15T09:36:50;71.25;;;42.10;;
70406;SDS011;57821;52.202;0.154;2023-02-15T09:39:18;67.50;;;41.72;;
70406;SDS011;57821;52.202;0.154;2023-02-15T09:44:34;62.72;;;40.92;;
70406;SDS011;57821;52.202;0.154;2023-02-15T09:53:19;62.60;;;38.70;;
70406;SDS011;57821;52.202;0.154;2023-02-15T09:58:28;64.57;;;41.40;;
70406;SDS011;57821;52.202;0.154;2023-02-15T10:01:01;60.90;;;39.30;;
70406;SDS011;57821;52.202;0.154;2023-02-15T10:06:24;62.88;;;38.83;;
70406;SDS011;57821;52.202;0.154;2023-02-15T10:17:04;53.72;;;35.67;;
70406;SDS011;57821;52.202;0.154;2023-02-15T10:19:41;56.25;;;36.08;;
70406;SDS011;57821;52.202;0.154;2023-02-15T10:25:25;57.80;;;34.88;;
70406;SDS011;57821;52.202;0.154;2023-02-15T10:27:53;52.78;;;33.58;;
70406;SDS011;57821;52.202;0.154;2023-02-15T10:30:56;61.13;;;36.40;;
70406;SDS011;57821;52.202;0.154;2023-02-15T10:39:11;47.97;;;31.98;;
70406;SDS011;57821;52.202;0.154;2023-02-15T10:44:49;48.55;;;31.40;;
70406;SDS011;57821;52.202;0.154;2023-02-15T10:52:51;48.75;;;31.08;;
70406;SDS011;57821;52.202;0.154;2023-02-15T10:55:42;53.47;;;30.67;;
70406;SDS011;57821;52.202;0.154;2023-02-15T11:06:53;47.65;;;31.13;;
70406;SDS011;57821;52.202;0.154;2023-02-15T11:09:24;47.33;;;29.48;;
70406;SDS011;57821;52.202;0.154;2023-02-15T11:11:55;49.05;;;30.38;;
70406;SDS011;57821;52.202;0.154;2023-02-15T11:14:27;44.20;;;29.15;;
70406;SDS011;57821;52.202;0.154;2023-02-15T11:17:10;47.78;;;28.02;;
70406;SDS011;57821;52.202;0.154;2023-02-15T11:19:54;45.08;;;29.23;;
70406;SDS011;57821;52.202;0.154;2023-02-15T11:22:28;51.08;;;28.52;;
70406;SDS011;57821;52.202;0.154;2023-02-15T11:24:58;47.50;;;28.08;;
70406;SDS011;57821;52.202;0.154;2023-02-15T11:27:31;46.28;;;28.17;;
70406;SDS011;57821;52.202;0.154;2023-02-15T11:30:05;45.05;;;27.98;;
70406;SDS011;57821;52.202;0.154;2023-02-15T11:32:44;38.70;;;25.98;;
70406;SDS011;57821;52.202;0.154;2023-02-15T11:37:49;44.15;;;27.00;;
70406;SDS011;57821;52.202;0.154;2023-02-15T11:40:50;42.03;;;25.67;;
70406;SDS011;57821;52.202;0.154;2023-02-15T11:43:23;44.17;;;26.88;;
70406;SDS011;57821;52.202;0.154;2023-02-15T11:45:56;43.50;;;24.33;;
70406;SDS011;57821;52.202;0.154;2023-02-15T11:48:23;44.65;;;23.33;;
70406;SDS011;57821;52.202;0.154;2023-02-15T11:50:49;41.42;;;24.25;;
70406;SDS011;57821;52.202;0.154;2023-02-15T11:53:20;37.08;;;21.63;;
70406;SDS011;57821;52.202;0.154;2023-02-15T11:55:48;41.55;;;22.25;;
70406;SDS011;57821;52.202;0.154;2023-02-15T12:01:11;31.70;;;19.95;;
70406;SDS011;57821;52.202;0.154;2023-02-15T12:06:11;33.67;;;19.95;;
70406;SDS011;57821;52.202;0.154;2023-02-15T12:08:44;33.63;;;21.50;;
70406;SDS011;57821;52.202;0.154;2023-02-15T12:11:17;31.60;;;19.80;;
70406;SDS011;57821;52.202;0.154;2023-02-15T12:13:55;42.13;;;20.67;;
70406;SDS011;57821;52.202;0.154;2023-02-15T12:16:23;36.28;;;21.00;;
70406;SDS011;57821;52.202;0.154;2023-02-15T12:18:52;41.50;;;21.83;;
70406;SDS011;57821;52.202;0.154;2023-02-15T12:21:25;30.83;;;20.67;;
70406;SDS011;57821;52.202;0.154;2023-02-15T12:24:17;38.75;;;21.05;;
70406;SDS011;57821;52.202;0.154;2023-02-15T12:27:02;31.13;;;19.92;;
70406;SDS011;57821;52.202;0.154;2023-02-15T12:29:39;40.05;;;21.25;;
70406;SDS011;57821;52.202;0.154;2023-02-15T12:32:11;37.17;;;22.13;;
70406;SDS011;57821;52.202;0.154;2023-02-15T12:34:44;37.63;;;21.30;;
70406;SDS011;57821;52.202;0.154;2023-02-15T12:37:21;38.05;;;20.92;;
70406;SDS011;57821;52.202;0.154;2023-02-15T12:39:55;36.38;;;20.80;;
70406;SDS011;57821;52.202;0.154;2023-02-15T12:45:03;36.50;;;20.33;;
70406;SDS011;57821;52.202;0.154;2023-02-15T12:47:45;34.95;;;19.88;;
70406;SDS011;57821;52.202;0.154;2023-02-15T12:50:22;39.35;;;20.58;;
70406;SDS011;57821;52.202;0.154;2023-02-15T12:52:50;34.67;;;20.02;;
70406;SDS011;57821;52.202;0.154;2023-02-15T12:57:58;34.05;;;17.92;;
70406;SDS011;57821;52.202;0.154;2023-02-15T13:00:34;30.40;;;19.15;;
70406;SDS011;57821;52.202;0.154;2023-02-15T13:03:01;31.00;;;17.80;;
70406;SDS011;57821;52.202;0.154;2023-02-15T13:05:36;33.88;;;17.50;;
70406;SDS011;57821;52.202;0.154;2023-02-15T13:08:11;28.17;;;16.77;;
70406;SDS011;57821;52.202;0.154;2023-02-15T13:10:42;28.65;;;17.60;;
70406;SDS011;57821;52.202;0.154;2023-02-15T13:13:19;28.20;;;17.30;;
70406;SDS011;57821;52.202;0.154;2023-02-15T13:15:49;28.23;;;14.55;;
70406;SDS011;57821;52.202;0.154;2023-02-15T13:21:20;29.38;;;17.27;;
70406;SDS011;57821;52.202;0.154;2023-02-15T13:23:54;40.80;;;17.30;;
70406;SDS011;57821;52.202;0.154;2023-02-15T13:26:26;36.33;;;17.50;;
70406;SDS011;57821;52.202;0.154;2023-02-15T13:28:56;29.03;;;17.07;;
70406;SDS011;57821;52.202;0.154;2023-02-15T13:31:27;29.83;;;17.42;;
70406;SDS011;57821;52.202;0.154;2023-02-15T13:34:09;29.88;;;16.65;;
70406;SDS011;57821;52.202;0.154;2023-02-15T13:39:26;30.80;;;17.38;;
70406;SDS011;57821;52.202;0.154;2023-02-15T13:47:50;27.52;;;15.85;;
70406;SDS011;57821;52.202;0.154;2023-02-15T13:53:33;25.05;;;15.38;;
70406;SDS011;57821;52.202;0.154;2023-02-15T14:02:19;29.58;;;16.05;;
70406;SDS011;57821;52.202;0.154;2023-02-15T14:05:05;32.90;;;15.25;;
70406;SDS011;57821;52.202;0.154;2023-02-15T14:08:13;30.08;;;15.75;;
70406;SDS011;57821;52.202;0.154;2023-02-15T14:16:39;26.17;;;15.38;;
70406;SDS011;57821;52.202;0.154;2023-02-15T14:19:46;27.88;;;14.90;;
70406;SDS011;57821;52.202;0.154;2023-02-15T14:24:58;29.27;;;14.55;;
70406;SDS011;57821;52.202;0.154;2023-02-15T14:30:26;26.15;;;13.68;;
70406;SDS011;57821;52.202;0.154;2023-02-15T14:33:00;31.83;;;14.15;;
70406;SDS011;57821;52.202;0.154;2023-02-15T14:35:34;27.50;;;14.25;;
70406;SDS011;57821;52.202;0.154;2023-02-15T14:38:13;22.90;;;13.73;;
70406;SDS011;57821;52.202;0.154;2023-02-15T14:40:48;28.17;;;14.52;;
70406;SDS011;57821;52.202;0.154;2023-02-15T14:49:20;26.13;;;13.80;;
70406;SDS011;57821;52.202;0.154;2023-02-15T14:51:57;30.92;;;13.77;;
70406;SDS011;57821;52.202;0.154;2023-02-15T15:04:36;24.38;;;12.77;;
70406;SDS011;57821;52.202;0.154;2023-02-15T15:07:09;21.40;;;11.63;;
70406;SDS011;57821;52.202;0.154;2023-02-15T15:09:46;30.08;;;12.35;;
70406;SDS011;57821;52.202;0.154;2023-02-15T15:14:51;24.23;;;11.60;;
70406;SDS011;57821;52.202;0.154;2023-02-15T15:20:01;20.30;;;11.93;;
70406;SDS011;57821;52.202;0.154;2023-02-15T15:25:43;28.67;;;11.80;;
70406;SDS011;57821;52.202;0.154;2023-02-15T15:43:00;20.10;;;10.93;;
70406;SDS011;57821;52.202;0.154;2023-02-15T15:48:21;22.13;;;9.90;;
70406;SDS011;57821;52.202;0.154;2023-02-15T15:50:57;26.38;;;11.23;;
70406;SDS011;57821;52.202;0.154;2023-02-15T15:53:26;21.40;;;10.02;;
70406;SDS011;57821;52.202;0.154;2023-02-15T15:55:57;18.67;;;10.40;;
70406;SDS011;57821;52.202;0.154;2023-02-15T15:58:29;27.08;;;11.45;;
70406;SDS011;57821;52.202;0.154;2023-02-15T16:00:59;19.23;;;10.57;;
70406;SDS011;57821;52.202;0.154;2023-02-15T16:03:32;20.75;;;10.65;;
70406;SDS011;57821;52.202;0.154;2023-02-15T16:05:59;22.38;;;10.88;;
70406;SDS011;57821;52.202;0.154;2023-02-15T16:10:52;21.63;;;10.80;;
70406;SDS011;57821;52.202;0.154;2023-02-15T16:13:18;24.27;;;12.00;;
70406;SDS011;57821;52.202;0.154;2023-02-15T16:15:46;23.23;;;11.13;;
70406;SDS011;57821;52.202;0.154;2023-02-15T16:18:15;18.30;;;10.07;;
70406;SDS011;57821;52.202;0.154;2023-02-15T16:20:48;20.15;;;8.25;;
70406;SDS011;57821;52.202;0.154;2023-02-15T16:28:51;22.42;;;9.90;;
70406;SDS011;57821;52.202;0.154;2023-02-15T16:31:20;25.80;;;9.60;;
70406;SDS011;57821;52.202;0.154;2023-02-15T16:33:48;23.38;;;9.43;;
70406;SDS011;57821;52.202;0.154;2023-02-15T16:43:50;24.02;;;9.75;;
70406;SDS011;57821;52.202;0.154;2023-02-15T16:46:21;19.23;;;10.13;;
70406;SDS011;57821;52.202;0.154;2023-02-15T16:48:53;18.38;;;9.77;;
70406;SDS011;57821;52.202;0.154;2023-02-15T16:51:25;20.60;;;9.48;;
70406;SDS011;57821;52.202;0.154;2023-02-15T16:53:54;23.35;;;10.30;;
70406;SDS011;57821;52.202;0.154;2023-02-15T16:56:23;23.33;;;10.20;;
70406;SDS011;57821;52.202;0.154;2023-02-15T16:58:53;24.35;;;10.70;;
70406;SDS011;57821;52.202;0.154;2023-02-15T17:01:22;19.65;;;10.02;;
70406;SDS011;57821;52.202;0.154;2023-02-15T17:04:16;22.23;;;10.15;;
70406;SDS011;57821;52.202;0.154;2023-02-15T17:07:00;27.55;;;11.60;;
70406;SDS011;57821;52.202;0.154;2023-02-15T17:09:32;24.30;;;11.00;;
70406;SDS011;57821;52.202;0.154;2023-02-15T17:11:59;27.52;;;11.60;;
70406;SDS011;57821;52.202;0.154;2023-02-15T17:14:27;24.23;;;10.70;;
70406;SDS011;57821;52.202;0.154;2023-02-15T17:17:02;25.38;;;11.48;;
70406;SDS011;57821;52.202;0.154;2023-02-15T17:19:33;25.45;;;12.02;;
70406;SDS011;57821;52.202;0.154;2023-02-15T17:22:06;29.83;;;12.75;;
70406;SDS011;57821;52.202;0.154;2023-02-15T17:24:34;26.48;;;11.80;;
70406;SDS011;57821;52.202;0.154;2023-02-15T17:27:07;25.60;;;11.63;;
70406;SDS011;57821;52.202;0.154;2023-02-15T17:29:48;22.88;;;10.90;;
70406;SDS011;57821;52.202;0.154;2023-02-15T17:32:18;23.00;;;10.23;;
70406;SDS011;57821;52.202;0.154;2023-02-15T17:42:47;28.23;;;10.65;;
70406;SDS011;57821;52.202;0.154;2023-02-15T17:45:14;25.42;;;9.35;;
70406;SDS011;57821;52.202;0.154;2023-02-15T17:47:41;21.77;;;10.38;;
70406;SDS011;57821;52.202;0.154;2023-02-15T17:50:10;23.42;;;9.93;;